EST,Max TemperatureF,Mean TemperatureF,Min TemperatureF,Max Dew PointF,MeanDew PointF,Min DewpointF,Max Humidity, Mean Humidity, Min Humidity, Max Sea Level PressureIn, Mean Sea Level PressureIn, Min Sea Level PressureIn, Max VisibilityMiles, Mean VisibilityMiles, Min VisibilityMiles, Max Wind SpeedMPH, Mean Wind SpeedMPH, Max Gust SpeedMPH,PrecipitationIn, CloudCover, Events, WindDirDegrees
2014-1-1,41,30,19,28,22,16,87,75,53,30.31,30.21,30.06,10,10,10,9,2,,0.00,2,,73
2014-1-2,29,20,9,27,17,3,94,84,73,30.30,29.99,29.85,10,4,1,21,9,32,0.08,7,Snow,7
2014-1-3,14,6,-1,2,-2,-8,76,65,50,30.54,30.44,30.30,10,10,10,10,7,,0.00,0,,217
2014-1-4,35,22,9,23,12,2,72,60,47,30.26,30.15,30.07,10,10,10,22,10,31,0.00,1,,169
2014-1-5,38,31,23,37,31,19,100,90,62,30.09,29.72,29.46,10,5,0,21,5,30,0.69,8,Fog-Rain-Snow,33
2014-1-6,23,7,-9,18,-6,-20,86,70,57,30.41,30.09,29.69,10,8,2,28,19,36,0.06,5,Snow,262
2014-1-7,11,2,-8,2,-9,-17,69,63,56,30.52,30.45,30.40,10,10,10,21,14,26,0.00,3,,220
2014-1-8,25,17,9,18,10,1,80,69,62,30.51,30.45,30.42,10,10,10,12,7,,0.00,5,,209
2014-1-9,33,26,19,32,24,16,100,85,69,30.56,30.45,30.32,10,7,0,10,5,,0.10,7,Fog-Snow,116
2014-1-10,49,40,32,47,37,31,100,96,90,30.30,30.10,29.73,10,6,1,14,5,,0.00,8,,146
2014-1-11,51,43,35,50,43,29,100,89,75,29.80,29.60,29.48,10,10,4,25,13,34,0.39,8,Rain,207
2014-1-12,42,36,32,32,29,26,87,78,59,30.07,29.93,29.78,10,10,10,15,11,22,0.00,6,,231
2014-1-13,52,47,42,46,40,29,100,77,50,29.88,29.75,29.68,10,9,4,22,14,32,0.08,5,Rain,206
2014-1-14,47,38,28,39,30,21,90,75,40,29.91,29.82,29.75,10,10,10,21,9,29,0.01,5,Rain,248
2014-1-15,32,25,18,19,16,11,85,68,50,30.11,30.03,29.88,10,9,2,24,13,34,0.00,7,Rain-Snow,268
2014-1-16,32,24,17,26,20,11,93,80,62,30.07,29.86,29.77,10,7,1,21,12,28,0.04,7,Snow,183
2014-1-17,32,20,7,32,20,0,100,83,61,30.09,29.87,29.75,10,6,0,18,10,28,0.05,7,Fog-Snow,230
2014-1-18,23,16,9,20,13,3,93,80,68,30.08,29.95,29.50,10,6,0,15,11,,0.03,8,Fog-Snow,177
2014-1-19,33,26,21,24,20,16,93,77,62,29.97,29.84,29.73,10,10,7,23,10,29,0.00,4,Snow,222
2014-1-20,36,33,30,28,26,23,85,73,65,29.95,29.84,29.68,10,10,10,23,13,29,0.00,6,,246
2014-1-21,32,17,2,28,8,-7,90,75,63,30.24,30.02,29.81,10,6,1,24,12,32,0.03,6,Snow,6
2014-1-22,14,4,-5,10,-1,-10,83,69,52,30.23,30.11,29.99,10,9,3,14,5,,0.00,5,Snow,199
2014-1-23,14,7,0,10,-3,-9,86,68,55,30.64,30.43,30.00,10,9,2,16,12,28,0.00,4,Snow,258
2014-1-24,20,9,-2,4,-3,-8,79,63,48,30.63,30.33,29.84,10,10,10,29,13,33,0.00,4,,208
2014-1-25,31,20,9,25,15,-1,93,79,54,29.93,29.63,29.48,10,4,0,30,23,43,0.05,7,Snow,240
2014-1-26,39,21,3,29,11,-3,85,72,55,29.93,29.69,29.55,10,8,1,23,9,31,0.03,5,Snow,187
2014-1-27,41,20,-4,30,1,-14,87,61,37,30.48,30.06,29.56,10,9,3,33,21,47,0.14,3,Snow,276
2014-1-28,5,-3,-11,-10,-14,-17,74,60,41,30.53,30.46,30.36,10,10,10,8,4,,0.00,0,,235
2014-1-29,20,7,-6,3,-4,-13,80,60,44,30.38,30.35,30.31,10,10,10,20,6,25,0.00,0,,211
2014-1-30,30,20,9,12,3,-3,61,47,35,30.30,30.13,29.94,10,10,10,18,10,26,0.00,4,,179
2014-1-31,34,32,30,28,22,11,93,69,43,30.17,30.13,30.02,10,8,1,15,9,,0.00,7,Snow,217